createdAt,value
2018-10-16T00:00:52.770Z,6.13
2018-10-16T00:03:22.275Z,6.47
2018-10-16T00:05:51.912Z,6.97
2018-10-16T00:08:21.488Z,7.47
2018-10-16T00:10:51.051Z,7.37
2018-10-16T00:13:20.574Z,7.83
2018-10-16T00:15:50.274Z,7.27
2018-10-16T00:18:19.797Z,7.73
2018-10-16T00:20:49.355Z,8.07
2018-10-16T00:23:18.891Z,7.77
2018-10-16T00:25:48.474Z,8.07
2018-10-16T00:28:24.255Z,9.07
2018-10-16T00:30:53.866Z,11.30
2018-10-16T00:33:23.566Z,13.60
2018-10-16T00:35:53.149Z,14.07
2018-10-16T00:38:22.712Z,15.27
2018-10-16T00:40:52.288Z,15.80
2018-10-16T00:43:21.807Z,17.53
2018-10-16T00:45:51.373Z,17.70
2018-10-16T00:48:20.955Z,18.77
2018-10-16T00:50:50.507Z,20.20
2018-10-16T00:53:20.091Z,19.70
2018-10-16T00:55:49.618Z,19.43
2018-10-16T00:58:19.178Z,20.03
2018-10-16T01:00:48.714Z,19.60
2018-10-16T01:03:18.335Z,19.73
2018-10-16T01:05:47.843Z,19.37
2018-10-16T01:08:17.455Z,20.90
2018-10-16T01:10:46.975Z,19.27
2018-10-16T01:13:16.538Z,20.13
2018-10-16T01:15:46.049Z,20.33
2018-10-16T01:18:15.542Z,20.60
2018-10-16T01:20:45.079Z,19.83
2018-10-16T01:23:14.649Z,19.23
2018-10-16T01:25:44.177Z,19.67
2018-10-16T01:28:13.727Z,19.17
2018-10-16T01:30:43.294Z,18.07
2018-10-16T01:33:12.862Z,19.23
2018-10-16T01:35:42.354Z,19.00
2018-10-16T01:38:11.916Z,18.63
2018-10-16T01:43:16.152Z,17.93
2018-10-16T01:45:45.781Z,16.60
2018-10-16T01:48:15.399Z,17.00
2018-10-16T01:50:44.948Z,16.23
2018-10-16T01:53:14.482Z,16.67
2018-10-16T01:55:43.981Z,16.97
2018-10-16T01:58:13.611Z,15.63
2018-10-16T02:00:43.111Z,15.33
2018-10-16T02:03:12.703Z,13.57
2018-10-16T02:05:42.283Z,13.50
2018-10-16T02:08:11.786Z,13.17
2018-10-16T02:10:41.342Z,13.40
2018-10-16T02:13:10.911Z,11.87
2018-10-16T02:15:40.460Z,12.00
2018-10-16T02:18:10.023Z,12.90
2018-10-16T02:20:39.575Z,12.67
2018-10-16T02:23:09.118Z,12.23
2018-10-16T02:25:38.702Z,12.27
2018-10-16T02:28:08.246Z,12.37
2018-10-16T02:30:37.900Z,13.13
2018-10-16T02:33:07.556Z,12.63
2018-10-16T02:35:37.100Z,11.27
2018-10-16T02:38:06.794Z,11.10
2018-10-16T02:40:36.455Z,12.03
2018-10-16T02:43:06.333Z,10.87
2018-10-16T02:45:35.919Z,10.67
2018-10-16T02:48:05.665Z,10.77
2018-10-16T02:50:35.234Z,10.60
2018-10-16T02:53:04.962Z,10.07
2018-10-16T02:55:34.491Z,9.47
2018-10-16T02:58:04.270Z,10.03
2018-10-16T03:00:33.811Z,9.63
2018-10-16T03:03:03.375Z,9.60
2018-10-16T03:05:32.894Z,10.07
2018-10-16T03:08:02.499Z,9.13
2018-10-16T03:10:32.051Z,8.80
2018-10-16T03:13:01.637Z,8.70
2018-10-16T03:15:31.178Z,8.13
2018-10-16T03:18:00.765Z,8.37
2018-10-16T03:20:30.323Z,8.23
2018-10-16T03:22:59.822Z,7.83
2018-10-16T03:25:29.367Z,7.70
2018-10-16T03:27:58.883Z,7.03
2018-10-16T03:30:28.518Z,7.97
2018-10-16T03:32:58.150Z,7.20
2018-10-16T03:35:27.675Z,7.70
2018-10-16T03:37:57.207Z,7.60
2018-10-16T03:40:26.763Z,7.40
2018-10-16T03:42:56.323Z,8.20
2018-10-16T03:45:25.848Z,8.73
2018-10-16T03:47:55.423Z,7.80
2018-10-16T03:50:24.970Z,8.20
2018-10-16T03:52:54.496Z,7.90
2018-10-16T03:55:24.031Z,7.80
2018-10-16T03:57:53.562Z,8.67
2018-10-16T04:00:23.108Z,9.40
2018-10-16T04:02:52.646Z,9.23
2018-10-16T04:05:22.216Z,9.27
2018-10-16T04:07:51.694Z,8.70
2018-10-16T04:10:21.234Z,8.83
2018-10-16T04:12:50.742Z,9.20
2018-10-16T04:15:20.271Z,8.93
2018-10-16T04:17:49.917Z,14.87
2018-10-16T04:20:19.558Z,19.50
2018-10-16T04:22:50.013Z,18.13
2018-10-16T04:25:19.523Z,21.50
2018-10-16T04:27:49.054Z,20.93
2018-10-16T04:30:18.590Z,19.43
2018-10-16T04:32:48.081Z,19.57
2018-10-16T04:35:18.164Z,18.47
2018-10-16T04:37:47.938Z,18.47
2018-10-16T04:40:17.508Z,17.13
2018-10-16T04:42:47.030Z,18.50
2018-10-16T04:45:16.552Z,18.47
2018-10-16T04:47:46.097Z,17.43
2018-10-16T04:50:15.634Z,16.63
2018-10-16T04:52:45.200Z,15.33
2018-10-16T04:55:14.814Z,15.03
2018-10-16T04:57:44.342Z,15.60
2018-10-16T05:00:13.918Z,14.20
2018-10-16T05:02:43.591Z,13.07
2018-10-16T05:05:21.394Z,13.37
2018-10-16T05:07:51.667Z,11.50
2018-10-16T05:10:21.835Z,11.07
2018-10-16T05:12:51.652Z,11.43
2018-10-16T05:15:27.027Z,11.97
2018-10-16T05:17:56.926Z,11.73
2018-10-16T05:20:26.555Z,10.60
2018-10-16T05:22:56.858Z,9.90
2018-10-16T05:25:27.642Z,9.63
2018-10-16T05:27:57.783Z,9.77
2018-10-16T05:30:27.530Z,10.23
2018-10-16T05:32:57.074Z,11.13
2018-10-16T05:35:26.634Z,10.27
2018-10-16T05:37:56.319Z,11.60
2018-10-16T05:40:25.847Z,12.77
2018-10-16T05:42:55.459Z,15.27
2018-10-16T05:45:26.042Z,15.37
2018-10-16T05:47:55.773Z,15.97
2018-10-16T05:50:25.351Z,15.80
2018-10-16T05:52:54.959Z,15.97
2018-10-16T05:55:24.710Z,15.30
2018-10-16T05:57:54.316Z,15.80
2018-10-16T06:00:46.388Z,15.97
2018-10-16T06:03:15.951Z,16.50
2018-10-16T06:05:45.598Z,16.57
2018-10-16T06:08:15.124Z,16.87
2018-10-16T06:10:44.791Z,17.30
2018-10-16T06:13:14.514Z,16.27
2018-10-16T06:15:44.446Z,16.03
2018-10-16T06:18:14.023Z,16.17
2018-10-16T06:20:43.691Z,15.57
2018-10-16T06:23:13.225Z,15.57
2018-10-16T06:25:42.814Z,15.33
2018-10-16T06:28:23.491Z,15.27
2018-10-16T06:30:53.151Z,15.40
2018-10-16T06:33:31.143Z,14.40
2018-10-16T06:36:00.708Z,15.37
2018-10-16T06:38:30.254Z,14.80
2018-10-16T06:40:59.971Z,14.50
2018-10-16T06:43:30.471Z,15.47
2018-10-16T06:46:00.869Z,14.37
2018-10-16T06:48:30.820Z,12.80
2018-10-16T06:51:00.135Z,12.60
2018-10-16T06:53:29.703Z,12.40
2018-10-16T06:55:59.294Z,11.70
2018-10-16T06:58:28.907Z,12.27
2018-10-16T07:00:58.500Z,11.47
2018-10-16T07:03:28.018Z,10.67
2018-10-16T07:05:57.593Z,11.50
2018-10-16T07:08:27.130Z,11.80
2018-10-16T07:10:56.727Z,11.40
2018-10-16T07:13:26.348Z,11.23
2018-10-16T07:15:55.878Z,11.47
2018-10-16T07:18:25.447Z,11.17
2018-10-16T07:20:55.020Z,11.97
2018-10-16T07:23:24.670Z,12.60
2018-10-16T07:25:54.181Z,11.27
2018-10-16T07:28:23.927Z,10.80
2018-10-16T07:30:53.554Z,12.03
2018-10-16T07:33:23.088Z,11.68
2018-10-16T07:35:52.640Z,13.30
2018-10-16T07:38:22.242Z,12.37
2018-10-16T07:40:51.794Z,11.73
2018-10-16T07:43:21.391Z,11.10
2018-10-16T07:45:50.951Z,12.87
2018-10-16T07:48:20.532Z,9.73
2018-10-16T07:50:50.113Z,10.10
2018-10-16T07:53:19.618Z,10.70
2018-10-16T07:55:49.180Z,9.73
2018-10-16T07:58:18.785Z,9.40
2018-10-16T08:00:48.431Z,8.87
2018-10-16T08:03:17.974Z,9.98
2018-10-16T08:05:47.522Z,9.00
2018-10-16T08:08:17.035Z,10.37
2018-10-16T08:10:46.673Z,9.00
2018-10-16T08:13:16.224Z,9.40
2018-10-16T08:15:45.820Z,10.17
2018-10-16T08:18:15.404Z,10.30
2018-10-16T08:20:44.943Z,11.03
2018-10-16T08:23:14.508Z,11.67
2018-10-16T08:25:44.000Z,11.27
2018-10-16T08:28:13.543Z,9.40
2018-10-16T08:30:43.106Z,9.60
2018-10-16T08:33:12.711Z,10.60
2018-10-16T08:35:42.271Z,9.67
2018-10-16T08:38:24.603Z,10.30
2018-10-16T08:40:54.633Z,9.23
2018-10-16T08:43:39.051Z,8.93
2018-10-16T08:46:19.310Z,9.27
2018-10-16T08:49:00.331Z,10.43
2018-10-16T08:51:55.580Z,10.18
2018-10-16T08:54:25.200Z,9.80
2018-10-16T08:56:54.814Z,9.43
2018-10-16T08:59:24.375Z,9.10
2018-10-16T09:01:53.918Z,8.57
2018-10-16T09:04:23.530Z,8.40
2018-10-16T09:06:53.154Z,8.03
2018-10-16T09:09:22.735Z,7.77
2018-10-16T09:11:52.366Z,7.27
2018-10-16T09:14:21.937Z,7.93
2018-10-16T09:16:51.458Z,8.37
2018-10-16T09:19:21.023Z,7.67
2018-10-16T09:21:50.561Z,7.90
2018-10-16T09:24:20.154Z,7.50
2018-10-16T09:26:49.699Z,7.33
2018-10-16T09:29:19.291Z,7.10
2018-10-16T09:31:48.795Z,8.67
2018-10-16T09:34:18.368Z,7.87
2018-10-16T09:36:47.877Z,7.90
2018-10-16T09:39:18.251Z,7.13
2018-10-16T09:41:47.784Z,7.17
2018-10-16T09:44:17.371Z,6.90
2018-10-16T09:46:46.980Z,6.57
2018-10-16T09:49:16.790Z,7.33
2018-10-16T09:51:46.591Z,7.43
2018-10-16T09:54:16.158Z,7.03
2018-10-16T09:56:45.733Z,6.83
2018-10-16T09:59:15.347Z,6.77
2018-10-16T10:01:48.625Z,5.30
2018-10-16T10:04:18.228Z,7.07
2018-10-16T10:06:47.859Z,5.43
2018-10-16T10:09:17.766Z,5.00
2018-10-16T10:11:47.651Z,5.37
2018-10-16T10:14:17.267Z,6.57
2018-10-16T10:16:46.884Z,4.77
2018-10-16T10:19:16.506Z,5.20
2018-10-16T10:21:46.076Z,5.20
2018-10-16T10:24:15.651Z,4.10
2018-10-16T10:26:45.191Z,3.87
2018-10-16T10:29:14.790Z,4.47
2018-10-16T10:31:44.407Z,4.87
2018-10-16T10:34:13.948Z,5.20
2018-10-16T10:36:44.210Z,4.53
2018-10-16T10:39:13.769Z,4.70
2018-10-16T10:41:44.025Z,5.07
2018-10-16T10:44:13.527Z,4.87
2018-10-16T10:46:43.139Z,4.30
2018-10-16T10:49:12.687Z,4.20
2018-10-16T10:51:42.367Z,3.93
2018-10-16T10:54:11.765Z,3.97
2018-10-16T10:56:41.398Z,3.50
2018-10-16T10:59:10.921Z,3.30
2018-10-16T11:01:40.504Z,3.63
2018-10-16T11:04:10.051Z,4.13
2018-10-16T11:06:39.625Z,4.37
2018-10-16T11:09:11.404Z,3.00
2018-10-16T11:11:41.334Z,3.10
2018-10-16T11:14:10.853Z,2.90
2018-10-16T11:16:40.416Z,3.13
2018-10-16T11:19:10.054Z,3.30
2018-10-16T11:21:40.375Z,3.70
2018-10-16T11:24:09.960Z,3.57
2018-10-16T11:26:39.480Z,3.30
2018-10-16T11:29:09.041Z,3.50
2018-10-16T11:31:38.555Z,3.10
2018-10-16T11:34:08.184Z,3.50
2018-10-16T11:36:37.979Z,3.50
2018-10-16T11:39:09.935Z,3.70
2018-10-16T11:41:39.557Z,5.97
2018-10-16T11:44:11.065Z,3.63
2018-10-16T11:46:41.821Z,3.70
2018-10-16T11:49:11.456Z,3.47
2018-10-16T11:51:41.063Z,3.73
2018-10-16T11:54:10.664Z,3.87
2018-10-16T11:56:40.211Z,3.90
2018-10-16T11:59:09.850Z,4.10
2018-10-16T12:01:39.425Z,4.13
2018-10-16T12:04:08.955Z,4.37
2018-10-16T12:06:38.547Z,3.97
2018-10-16T12:09:09.850Z,4.50
2018-10-16T12:11:40.219Z,4.70
2018-10-16T12:14:10.106Z,4.63
2018-10-16T12:16:43.778Z,4.07
2018-10-16T12:19:19.524Z,4.10
2018-10-16T12:21:49.660Z,4.37
2018-10-16T12:24:19.316Z,4.13
2018-10-16T12:26:48.916Z,3.83
2018-10-16T12:29:18.518Z,3.93
2018-10-16T12:31:48.054Z,4.30
2018-10-16T12:34:17.675Z,4.70
2018-10-16T12:36:47.257Z,4.10
2018-10-16T12:39:16.849Z,3.90
2018-10-16T12:41:46.787Z,4.63
2018-10-16T12:44:16.367Z,3.87
2018-10-16T12:46:45.915Z,4.87
2018-10-16T12:49:15.562Z,4.00
2018-10-16T12:51:45.075Z,4.27
2018-10-16T12:54:14.668Z,3.90
2018-10-16T12:56:44.229Z,3.80
2018-10-16T12:59:13.876Z,3.90
2018-10-16T13:01:43.990Z,6.07
2018-10-16T13:04:13.483Z,3.87
2018-10-16T13:06:43.974Z,3.73
2018-10-16T13:09:13.719Z,3.40
2018-10-16T13:11:43.463Z,4.60
2018-10-16T13:14:13.099Z,4.03
2018-10-16T13:16:42.723Z,3.87
2018-10-16T13:19:12.223Z,3.83
2018-10-16T13:21:42.370Z,3.47
2018-10-16T13:24:11.945Z,3.23
2018-10-16T13:26:41.517Z,3.40
2018-10-16T13:29:11.127Z,3.60
2018-10-16T13:31:40.685Z,3.87
2018-10-16T13:34:10.332Z,3.90
2018-10-16T13:36:39.863Z,3.60
2018-10-16T13:39:09.598Z,3.80
2018-10-16T13:41:39.163Z,3.37
2018-10-16T13:44:09.553Z,4.03
2018-10-16T13:46:39.050Z,3.37
2018-10-16T13:49:08.578Z,3.60
2018-10-16T13:51:38.158Z,3.40
2018-10-16T13:54:07.696Z,3.97
2018-10-16T13:56:37.281Z,3.03
2018-10-16T13:59:06.890Z,3.70
2018-10-16T14:01:36.410Z,4.10
2018-10-16T14:04:06.075Z,3.77
2018-10-16T14:06:35.789Z,3.20
2018-10-16T14:09:07.667Z,3.10
2018-10-16T14:11:37.310Z,3.30
2018-10-16T14:14:06.977Z,3.50
2018-10-16T14:16:36.552Z,3.10
2018-10-16T14:19:06.327Z,3.13
2018-10-16T14:21:36.570Z,3.87
2018-10-16T14:24:07.178Z,3.60
2018-10-16T14:26:36.773Z,3.40
2018-10-16T14:29:06.662Z,3.30
2018-10-16T14:31:36.247Z,3.07
2018-10-16T14:34:05.960Z,3.17
2018-10-16T14:36:35.489Z,3.30
2018-10-16T14:39:07.023Z,2.93
2018-10-16T14:41:36.654Z,3.17
2018-10-16T14:44:06.832Z,3.40
2018-10-16T14:46:36.747Z,3.47
2018-10-16T14:49:06.456Z,3.37
2018-10-16T14:51:36.360Z,3.50
2018-10-16T14:54:06.022Z,3.67
2018-10-16T14:56:35.827Z,3.93
2018-10-16T14:59:05.447Z,3.90
2018-10-16T15:01:34.991Z,3.60
2018-10-16T15:04:04.611Z,3.53
2018-10-16T15:06:34.155Z,3.13
2018-10-16T15:09:04.332Z,3.30
2018-10-16T15:11:33.840Z,3.10
2018-10-16T15:14:03.403Z,15.00
2018-10-16T15:16:33.054Z,13.03
2018-10-16T15:19:02.635Z,6.07
2018-10-16T15:21:32.139Z,4.17
2018-10-16T15:24:01.741Z,4.23
2018-10-16T15:26:31.263Z,3.80
2018-10-16T15:29:00.763Z,4.00
2018-10-16T15:31:30.342Z,3.97
2018-10-16T15:33:59.915Z,3.90
2018-10-16T15:36:29.518Z,4.23
2018-10-16T15:38:59.024Z,4.90
2018-10-16T15:41:28.570Z,4.37
2018-10-16T15:43:58.343Z,4.80
2018-10-16T15:46:28.130Z,5.80
2018-10-16T15:48:57.649Z,5.20
2018-10-16T15:51:27.222Z,5.00
2018-10-16T15:53:56.807Z,5.80
2018-10-16T15:56:27.248Z,5.43
2018-10-16T15:58:56.859Z,6.03
2018-10-16T16:01:26.831Z,6.40
2018-10-16T16:03:56.408Z,6.80
2018-10-16T16:06:25.958Z,7.70
2018-10-16T16:08:55.547Z,7.83
2018-10-16T16:11:25.054Z,8.00
2018-10-16T16:13:54.566Z,7.90
2018-10-16T16:16:24.117Z,7.93
2018-10-16T16:18:53.621Z,9.30
2018-10-16T16:21:23.191Z,8.73
2018-10-16T16:23:52.703Z,10.23
2018-10-16T16:26:22.356Z,9.40
2018-10-16T16:28:51.848Z,6.97
2018-10-16T16:31:21.331Z,7.13
2018-10-16T16:33:50.872Z,6.83
2018-10-16T16:36:20.402Z,6.87
2018-10-16T16:38:49.946Z,7.30
2018-10-16T16:41:19.567Z,7.80
2018-10-16T16:43:49.211Z,7.27
2018-10-16T16:46:18.671Z,8.47
2018-10-16T16:48:48.236Z,7.97
2018-10-16T16:51:17.748Z,8.30
2018-10-16T16:53:47.360Z,7.17
2018-10-16T16:56:16.856Z,7.80
2018-10-16T16:58:46.402Z,8.37
2018-10-16T17:01:15.899Z,7.70
2018-10-16T17:03:45.462Z,7.70
2018-10-16T17:06:15.018Z,7.90
2018-10-16T17:08:44.553Z,8.13
2018-10-16T17:11:14.143Z,8.27
2018-10-16T17:13:43.662Z,7.53
2018-10-16T17:16:13.227Z,7.67
2018-10-16T17:18:42.775Z,7.93
2018-10-16T17:21:12.314Z,7.23
2018-10-16T17:23:41.803Z,7.90
2018-10-16T17:26:11.619Z,7.37
2018-10-16T17:28:40.920Z,7.73
2018-10-16T17:31:10.503Z,7.80
2018-10-16T17:33:40.047Z,9.07
2018-10-16T17:36:09.552Z,8.30
2018-10-16T17:38:39.115Z,7.60
2018-10-16T17:41:08.625Z,7.57
2018-10-16T17:43:38.162Z,7.30
2018-10-16T17:46:07.911Z,6.87
2018-10-16T17:48:37.484Z,7.73
2018-10-16T17:51:07.029Z,6.97
2018-10-16T17:53:36.602Z,6.93
2018-10-16T17:56:06.508Z,7.37
2018-10-16T17:58:36.046Z,8.27
2018-10-16T18:01:05.903Z,7.63
2018-10-16T18:03:35.582Z,7.43
2018-10-16T18:06:05.143Z,8.03
2018-10-16T18:08:34.699Z,7.80
2018-10-16T18:11:04.242Z,8.37
2018-10-16T18:13:33.795Z,8.03
2018-10-16T18:16:03.344Z,8.33
2018-10-16T18:18:32.834Z,8.27
2018-10-16T18:21:02.470Z,8.83
2018-10-16T18:23:31.964Z,9.57
2018-10-16T18:26:01.524Z,15.40
2018-10-16T18:28:31.015Z,14.27
2018-10-16T18:31:00.571Z,13.70
2018-10-16T18:33:30.128Z,14.10
2018-10-16T18:35:59.668Z,12.70
2018-10-16T18:38:29.212Z,13.13
2018-10-16T18:40:58.786Z,14.80
2018-10-16T18:43:28.343Z,13.90
2018-10-16T18:45:57.887Z,11.30
2018-10-16T18:48:27.453Z,12.10
2018-10-16T18:50:57.077Z,12.30
2018-10-16T18:53:26.555Z,12.73
2018-10-16T18:55:56.063Z,12.07
2018-10-16T18:58:25.650Z,10.93
2018-10-16T19:00:55.172Z,11.20
2018-10-16T19:03:24.711Z,10.87
2018-10-16T19:05:54.307Z,10.27
2018-10-16T19:08:23.815Z,10.63
2018-10-16T19:10:53.355Z,9.83
2018-10-16T19:13:23.036Z,10.60
2018-10-16T19:15:52.607Z,10.60
2018-10-16T19:18:22.176Z,11.47
2018-10-16T19:20:51.750Z,11.20
2018-10-16T19:23:21.247Z,11.27
2018-10-16T19:25:50.782Z,12.37
2018-10-16T19:28:20.274Z,11.80
2018-10-16T19:30:49.927Z,11.23
2018-10-16T19:33:19.447Z,11.97
2018-10-16T19:35:49.005Z,12.37
2018-10-16T19:38:18.528Z,12.20
2018-10-16T19:40:48.064Z,12.40
2018-10-16T19:43:17.566Z,13.03
2018-10-16T19:45:47.103Z,12.37
2018-10-16T19:48:16.603Z,12.03
2018-10-16T19:50:46.135Z,12.47
2018-10-16T19:53:15.698Z,12.03
2018-10-16T19:55:45.196Z,11.33
2018-10-16T19:58:14.819Z,10.87
2018-10-16T20:00:44.323Z,11.53
2018-10-16T20:03:13.917Z,11.63
2018-10-16T20:05:43.371Z,10.90
2018-10-16T20:08:12.975Z,11.73
2018-10-16T20:10:42.511Z,11.50
2018-10-16T20:13:12.124Z,10.30
2018-10-16T20:15:41.723Z,11.00
2018-10-16T20:18:11.190Z,12.03
2018-10-16T20:20:40.734Z,11.53
2018-10-16T20:23:10.248Z,12.63
2018-10-16T20:25:39.847Z,12.07
2018-10-16T20:28:09.390Z,13.73
2018-10-16T20:30:38.890Z,14.37
2018-10-16T20:33:08.464Z,14.53
2018-10-16T20:35:37.963Z,16.80
2018-10-16T20:38:07.510Z,17.43
2018-10-16T20:40:37.065Z,15.20
2018-10-16T20:43:07.005Z,16.30
2018-10-16T20:45:36.571Z,17.20
2018-10-16T20:48:06.398Z,17.77
2018-10-16T20:50:35.955Z,18.23
2018-10-16T20:53:06.195Z,17.40
2018-10-16T20:55:35.735Z,18.20
2018-10-16T20:58:05.323Z,19.20
2018-10-16T21:00:34.904Z,19.27
2018-10-16T21:03:04.406Z,17.97
2018-10-16T21:05:34.032Z,18.23
2018-10-16T21:08:03.523Z,19.57
2018-10-16T21:10:33.052Z,19.40
2018-10-16T21:13:02.717Z,19.17
2018-10-16T21:15:32.280Z,20.23
2018-10-16T21:18:01.890Z,19.10
2018-10-16T21:20:31.431Z,20.23
2018-10-16T21:23:00.971Z,18.97
2018-10-16T21:25:30.530Z,19.43
2018-10-16T21:28:00.078Z,19.90
2018-10-16T21:30:29.631Z,20.23
2018-10-16T21:32:59.168Z,20.27
2018-10-16T21:35:28.707Z,20.77
2018-10-16T21:37:58.222Z,20.50
2018-10-16T21:40:27.791Z,21.23
2018-10-16T21:42:57.314Z,21.07
2018-10-16T21:45:26.901Z,20.70
2018-10-16T21:47:56.374Z,21.63
2018-10-16T21:50:25.972Z,20.63
2018-10-16T21:52:55.494Z,19.27
2018-10-16T21:55:25.047Z,21.57
2018-10-16T21:57:54.571Z,20.80
2018-10-16T22:00:29.087Z,19.47
2018-10-16T22:02:58.986Z,20.07
2018-10-16T22:05:28.495Z,20.47
2018-10-16T22:07:58.350Z,19.53
2018-10-16T22:10:27.858Z,18.53
2018-10-16T22:12:57.411Z,17.67
2018-10-16T22:15:26.980Z,18.87
2018-10-16T22:17:56.545Z,18.97
2018-10-16T22:20:26.050Z,18.37
2018-10-16T22:22:55.754Z,17.97
2018-10-16T22:25:25.204Z,18.17
2018-10-16T22:27:54.770Z,18.90
2018-10-16T22:30:24.347Z,18.57
2018-10-16T22:32:53.859Z,19.20
2018-10-16T22:35:23.386Z,18.20
2018-10-16T22:37:52.901Z,18.23
2018-10-16T22:40:22.458Z,18.10
2018-10-16T22:42:51.993Z,17.17
2018-10-16T22:45:21.570Z,18.27
2018-10-16T22:47:51.098Z,18.43
2018-10-16T22:50:20.618Z,19.33
2018-10-16T22:52:50.123Z,18.63
2018-10-16T22:55:19.687Z,19.07
2018-10-16T22:57:49.272Z,18.37
2018-10-16T23:00:19.683Z,18.83
2018-10-16T23:02:49.554Z,19.03
2018-10-16T23:05:19.075Z,18.73
2018-10-16T23:07:48.647Z,18.37
2018-10-16T23:10:18.185Z,18.43
2018-10-16T23:12:51.857Z,18.30
2018-10-16T23:15:21.399Z,17.57
2018-10-16T23:17:51.003Z,17.47
2018-10-16T23:20:20.625Z,17.23
2018-10-16T23:22:50.167Z,17.40
2018-10-16T23:25:19.671Z,17.97
2018-10-16T23:27:49.214Z,17.00
2018-10-16T23:30:18.790Z,16.20
2018-10-16T23:32:48.634Z,17.30
2018-10-16T23:35:18.165Z,16.40
2018-10-16T23:37:47.716Z,17.10
2018-10-16T23:40:17.251Z,17.23
2018-10-16T23:42:46.798Z,16.57
2018-10-16T23:45:16.326Z,15.77
2018-10-16T23:47:45.873Z,16.60
2018-10-16T23:50:15.403Z,17.07
2018-10-16T23:52:44.942Z,16.83
2018-10-16T23:55:14.485Z,16.13
2018-10-16T23:57:44.023Z,16.07
